Weather reports worldwide

Advertisment
Lorca, Spain (8426): temperature & dewpoint: 28.06.2020 18:00:00 - 04.07.2020 18:00:00 (CEST)Lorca, Spain (8426): wind speed & gusts: 28.06.2020 18:00:00 - 04.07.2020 18:00:00 (CEST)Lorca, Spain (8426): wind direction: 28.06.2020 18:00:00 - 04.07.2020 18:00:00 (CEST)Lorca, Spain (8426): precipitation: 28.06.2020 18:00:00 - 04.07.2020 18:00:00 (CEST)
Date & Time tt [°C] td [°C] ff [km/h] ff [kn] fx [km/h] fx [kn] dd rr [mm]
04.07.2020 18:00:00 - - - - - - - -
04.07.2020 17:00:00 31,3 19,3 8 4 21 12 S 0,0
04.07.2020 16:00:00 32,3 20,2 9 5 19 11 S 0,0
04.07.2020 15:00:00 31,9 19,2 4 2 17 9 ENE 0,0
04.07.2020 14:00:00 31,9 19,8 4 2 16 9 ENE -
04.07.2020 13:00:00 29,4 19,1 3 2 14 7 E 0,0
04.07.2020 12:00:00 27,5 19,1 5 3 12 6 ENE 0,0
04.07.2020 11:00:00 24,6 19,0 3 2 7 4 NNW 0,0
04.07.2020 10:00:00 23,5 19,2 1 1 6 3 SSE 0,0
04.07.2020 09:00:00 22,1 19,1 0 0 7 4 E 0,0
04.07.2020 08:00:00 21,0 17,8 2 1 8 4 N -
04.07.2020 07:00:00 20,4 17,6 3 2 10 5 N 0,0
04.07.2020 06:00:00 20,3 17,9 4 2 7 4 N 0,0
04.07.2020 05:00:00 20,2 18,2 0 0 2 1 N 0,0
04.07.2020 04:00:00 20,5 17,9 0 0 3 2 NE 0,0
04.07.2020 03:00:00 21,0 18,4 0 0 1 1 NE 0,0
04.07.2020 02:00:00 21,7 18,5 0 0 3 2 E -
04.07.2020 01:00:00 22,6 18,5 0 0 2 1 E 0,0
04.07.2020 00:00:00 23,5 18,4 0 0 7 4 S 0,0
03.07.2020 23:00:00 24,3 17,8 1 1 8 4 ENE 0,0
03.07.2020 22:00:00 25,3 18,5 1 0 9 5 E 0,0
03.07.2020 21:00:00 26,8 18,1 2 1 10 6 E 0,0
03.07.2020 20:00:00 28,6 18,4 1 1 10 5 E -
03.07.2020 19:00:00 28,9 18,7 1 1 13 7 ESE 0,0
03.07.2020 18:00:00 29,5 18,9 2 1 11 6 E 0,0
03.07.2020 17:00:00 29,6 19,0 3 2 14 7 E 0,0
03.07.2020 16:00:00 29,6 19,0 2 1 17 9 ESE 0,0
03.07.2020 15:00:00 30,1 19,8 5 3 23 12 S 0,0
03.07.2020 14:00:00 32,0 18,9 3 2 21 11 SE -
03.07.2020 13:00:00 30,5 17,5 5 3 17 9 ENE 0,0
03.07.2020 12:00:00 29,1 18,8 3 1 14 7 ENE 0,0
03.07.2020 11:00:00 26,6 19,7 4 2 19 10 NE 0,0
03.07.2020 10:00:00 24,6 20,1 3 1 10 6 E 0,0
03.07.2020 09:00:00 22,7 20,1 2 1 8 4 E 0,0
03.07.2020 08:00:00 20,4 15,8 1 1 7 4 N -
03.07.2020 07:00:00 20,0 14,8 4 2 8 5 NNE 0,0
03.07.2020 06:00:00 20,5 17,3 4 2 13 7 NNE 0,0
03.07.2020 05:00:00 21,3 15,2 7 4 17 9 N 0,0
03.07.2020 04:00:00 21,0 16,8 1 0 5 3 NNW 0,0
03.07.2020 03:00:00 22,4 19,3 0 0 8 5 NNE 0,0
03.07.2020 02:00:00 22,9 19,3 4 2 14 8 NE -
03.07.2020 01:00:00 23,4 19,3 8 4 13 7 NE 0,0
03.07.2020 00:00:00 24,8 17,5 2 1 6 4 NE 0,0
02.07.2020 23:00:00 26,3 17,6 1 1 11 6 NNE 0,0
02.07.2020 22:00:00 27,3 17,1 4 2 16 8 ENE 0,0
02.07.2020 21:00:00 29,4 16,6 5 3 16 8 ENE 0,0
02.07.2020 20:00:00 32,4 16,2 5 3 20 11 S -
02.07.2020 19:00:00 32,7 15,7 9 5 18 10 SW 0,0
02.07.2020 18:00:00 33,3 15,8 8 5 21 12 SSW 0,0
02.07.2020 17:00:00 33,7 16,1 10 5 24 13 SSW 0,0
02.07.2020 16:00:00 34,4 13,8 11 6 27 15 SSW 0,0
02.07.2020 15:00:00 36,2 13,7 10 5 26 14 SSW 0,0
02.07.2020 14:00:00 38,3 12,1 3 1 13 7 E -
02.07.2020 13:00:00 37,3 12,0 4 2 16 9 ENE 0,0
02.07.2020 12:00:00 35,2 11,0 1 1 7 4 WSW 0,0
02.07.2020 11:00:00 32,3 12,5 2 1 8 4 SSE 0,0
02.07.2020 10:00:00 28,8 11,3 3 2 14 8 WSW 0,0
02.07.2020 09:00:00 26,3 9,2 6 3 15 8 N 0,0
02.07.2020 08:00:00 22,8 9,2 4 2 13 7 NW -
02.07.2020 07:00:00 24,4 8,8 6 3 18 10 NNW 0,0
02.07.2020 06:00:00 25,0 8,0 9 5 19 10 NW 0,0
02.07.2020 05:00:00 24,8 8,3 11 6 21 11 NNW 0,0
02.07.2020 04:00:00 25,6 9,0 12 6 21 11 NNW 0,0
02.07.2020 03:00:00 25,9 10,9 4 2 10 6 NNW 0,0
02.07.2020 02:00:00 24,7 14,8 2 1 10 5 SSW -
02.07.2020 01:00:00 25,4 11,6 3 1 7 4 N 0,0
02.07.2020 00:00:00 25,3 17,8 1 0 10 5 WNW 0,0
01.07.2020 23:00:00 26,2 17,5 1 1 4 2 ESE 0,0
01.07.2020 22:00:00 28,6 17,5 0 0 8 4 ESE 0,0
01.07.2020 21:00:00 32,9 15,9 1 1 14 8 SE 0,0
01.07.2020 20:00:00 34,6 15,0 6 3 15 8 SSW -
01.07.2020 19:00:00 36,2 14,2 5 3 19 11 S 0,0
01.07.2020 18:00:00 35,2 14,5 10 5 24 13 S 0,0
01.07.2020 17:00:00 35,6 14,8 9 5 26 14 SSW 0,0
01.07.2020 16:00:00 35,8 16,6 11 6 25 13 S 0,0
01.07.2020 15:00:00 36,0 16,7 12 6 25 13 S 0,0
01.07.2020 14:00:00 36,6 17,7 7 4 17 9 S -
01.07.2020 13:00:00 35,3 17,1 3 2 10 6 SE 0,0
01.07.2020 12:00:00 32,9 15,9 2 1 9 5 ENE 0,0
01.07.2020 11:00:00 29,4 18,2 3 2 10 5 S 0,0
01.07.2020 10:00:00 25,8 19,0 3 2 6 4 SSW 0,0
01.07.2020 09:00:00 22,2 18,6 0 0 4 2 SSE 0,0
01.07.2020 08:00:00 19,7 17,9 0 0 2 1 SSE -
01.07.2020 07:00:00 19,3 17,6 1 1 4 2 SSE 0,0
01.07.2020 06:00:00 20,0 17,9 0 0 3 1 SSE 0,0
01.07.2020 05:00:00 20,6 18,5 0 0 5 3 N 0,0
01.07.2020 04:00:00 21,2 18,5 1 1 4 2 SW 0,0
01.07.2020 03:00:00 21,5 18,8 1 1 5 3 WSW 0,0
01.07.2020 02:00:00 21,9 18,9 1 1 4 2 SSW -
01.07.2020 01:00:00 22,3 19,1 3 1 11 6 WSW 0,0
01.07.2020 00:00:00 22,8 19,0 3 2 14 8 SSW 0,0
30.06.2020 23:00:00 23,4 19,6 5 3 15 8 SSW 0,0
30.06.2020 22:00:00 25,2 20,0 3 1 15 8 SSW 0,0
30.06.2020 21:00:00 27,6 19,9 6 3 14 8 S 0,0
30.06.2020 20:00:00 30,8 17,9 3 2 22 12 E -
30.06.2020 19:00:00 31,7 18,3 7 4 25 13 ENE 0,0
30.06.2020 18:00:00 33,4 18,8 8 5 26 14 ENE 0,0
30.06.2020 17:00:00 35,0 19,8 3 2 21 11 E 0,0
30.06.2020 16:00:00 35,1 19,1 5 3 21 12 E 0,0
30.06.2020 15:00:00 33,1 18,5 11 6 31 17 NE 0,0
30.06.2020 14:00:00 32,5 19,4 7 4 21 11 ENE -
30.06.2020 13:00:00 31,2 18,5 6 3 22 12 ENE 0,0
30.06.2020 12:00:00 29,7 17,9 7 4 19 11 ENE 0,0
30.06.2020 11:00:00 26,4 15,8 8 4 17 9 NE 0,0
30.06.2020 10:00:00 23,9 17,4 2 1 11 6 ENE 0,0
30.06.2020 09:00:00 21,4 15,7 8 4 13 7 NE 0,0
30.06.2020 08:00:00 20,0 11,8 7 4 15 8 NNE -
30.06.2020 07:00:00 19,7 11,4 5 3 17 9 N 0,0
30.06.2020 06:00:00 20,1 11,6 6 3 14 8 NNE 0,0
30.06.2020 05:00:00 20,9 12,3 4 2 13 7 N 0,0
30.06.2020 04:00:00 21,1 12,7 4 2 10 6 N 0,0
30.06.2020 03:00:00 21,9 13,0 7 4 10 6 NNE 0,0
30.06.2020 02:00:00 22,8 15,6 4 2 7 4 NNE -
30.06.2020 01:00:00 23,3 15,3 2 1 5 3 NNE 0,0
30.06.2020 00:00:00 24,2 14,3 0 0 8 5 NNE 0,0
29.06.2020 23:00:00 26,1 13,6 2 1 7 4 NE 0,0
29.06.2020 22:00:00 27,7 15,0 1 0 16 9 SE 0,0
29.06.2020 21:00:00 29,7 16,1 8 4 23 12 ENE 0,0
29.06.2020 20:00:00 32,3 17,8 6 3 20 11 ENE -
29.06.2020 19:00:00 34,0 17,7 7 4 18 10 SSW 0,0
29.06.2020 18:00:00 34,2 17,0 8 4 22 12 SSW 0,0
29.06.2020 17:00:00 35,0 17,7 2 1 21 11 S 0,0
29.06.2020 16:00:00 33,8 17,5 7 4 20 11 SW 0,0
29.06.2020 15:00:00 33,4 17,5 10 5 22 12 SSW 0,0
29.06.2020 14:00:00 33,2 17,0 6 3 19 10 S -
29.06.2020 13:00:00 32,1 17,2 8 5 16 9 SW 0,0
29.06.2020 12:00:00 32,4 15,4 3 1 12 7 ENE 0,0
29.06.2020 11:00:00 29,0 13,7 2 1 8 5 S 0,0
29.06.2020 10:00:00 26,1 12,2 3 1 6 4 SSE 0,0
29.06.2020 09:00:00 22,8 10,5 3 1 8 4 N 0,0
29.06.2020 08:00:00 19,8 9,9 5 3 9 5 NW -
29.06.2020 07:00:00 18,0 9,6 0 0 8 4 NE 0,0
29.06.2020 06:00:00 20,2 8,5 5 3 14 8 NNW 0,0
29.06.2020 05:00:00 18,6 10,2 1 0 6 4 W 0,0
29.06.2020 04:00:00 19,0 9,8 0 0 3 2 N 0,0
29.06.2020 03:00:00 19,8 11,3 0 0 2 1 E 0,0
29.06.2020 02:00:00 20,9 10,6 0 0 3 2 N -
29.06.2020 01:00:00 22,4 10,5 0 0 6 3 SW 0,0
29.06.2020 00:00:00 23,5 11,6 3 2 9 5 WSW 0,0
28.06.2020 23:00:00 24,9 11,4 4 2 8 4 SW 0,0
28.06.2020 22:00:00 26,5 11,4 6 3 19 10 SW 0,0
28.06.2020 21:00:00 28,0 11,6 8 4 19 10 SW 0,0
28.06.2020 20:00:00 29,5 12,0 11 6 22 12 SW -
28.06.2020 19:00:00 31,0 13,3 11 6 27 15 SSW 0,0
28.06.2020 18:00:00 32,3 13,5 12 6 26 14 SSW 0,0

tt = temperature
td = dewpoint
ff = wind speed
fx = gusts
dd = wind direction
rr = precipitation

Next stations